Flight Track Log - Related Links

Times and Time Zones

All times are in EDT time to prevent confusion due to time zone crossing. See the ASQ5958 flight status page for this flight to view local times or setup timezone preferences in your user account.

Time Position Orientation Groundspeed Altitude Reporting Facility
EDT Latitude Longitude Course Direction KTS MPH feet Rate Location/Type
Mon 07:36:21 PM 40.5131 -80.3536 288° West 167 192 4,000  Level Cleveland Center
Mon 07:37:21 PM 40.5319 -80.4356 287° West 193 222 5,800 2,050 Climbing Cleveland Center
Mon 07:38:21 PM 40.5528 -80.5256 287° West 238 274 8,100 2,350 Climbing Cleveland Center
Mon 07:39:21 PM 40.5736 -80.6242 286° West 264 304 10,500 1,500 Climbing Cleveland Center
Mon 07:40:21 PM 40.5967 -80.7336 286° West 290 334 11,100 1,150 Climbing Cleveland Center
Mon 07:41:00 PM 40.6478 -80.9910 288° West  Level FlightAware Approximate
Mon 07:41:21 PM 40.6275 -80.8758 286° West 347 399 12,800  Level Cleveland Center
Mon 07:42:21 PM 40.6542 -81.0044 285° West 358 412 14,800 1,950 Climbing Cleveland Center
Mon 07:43:21 PM 40.6767 -81.1278 284° West 363 418 16,700 1,950 Climbing Cleveland Center
Mon 07:44:21 PM 40.7031 -81.2514 286° West 352 405 18,700 1,900 Climbing Cleveland Center
Mon 07:45:21 PM 40.7272 -81.3694 285° West 344 396 20,500 1,600 Climbing Cleveland Center
Mon 07:46:21 PM 40.7597 -81.4878 290° West 338 389 21,900 1,150 Climbing Cleveland Center
Mon 07:47:21 PM 40.7983 -81.6117 292° West 357 411 22,800 850 Climbing Cleveland Center
Mon 07:48:21 PM 40.8347 -81.7275 293° West 374 430 23,600 1,100 Climbing Cleveland Center
Mon 07:49:21 PM 40.8667 -81.8597 288° West 380 437 25,000 1,500 Climbing Cleveland Center
Mon 07:50:21 PM 40.8817 -81.9975 278° West 380 437 26,600 1,550 Climbing Cleveland Center
Mon 07:51:21 PM 40.8967 -82.1297 279° West 374 430 28,100 1,500 Climbing Cleveland Center
Mon 07:52:21 PM 40.9114 -82.2728 278° West 367 422 29,600 1,500 Climbing Cleveland Center
Mon 07:53:21 PM 40.9239 -82.4022 277° West 362 417 31,100 1,500 Climbing Cleveland Center
Mon 07:54:21 PM 40.9386 -82.5264 279° West 351 404 32,600 1,300 Climbing Cleveland Center
Mon 07:55:21 PM 40.9511 -82.6450 278° West 344 396 33,700 700 Climbing Cleveland Center
Mon 07:56:21 PM 40.9633 -82.7692 277° West 344 396 34,000 150 Climbing Cleveland Center
Mon 07:57:21 PM 40.9775 -82.9072 278° West 367 422 34,000 50 Level Cleveland Center
Mon 07:58:22 PM 40.9911 -83.0481 277° West 388 447 34,100 350 Climbing Cleveland Center
Mon 07:59:21 PM 40.9942 -83.1939 272° West 394 453 34,700 605 Climbing Cleveland Center
Mon 08:00:21 PM 40.9972 -83.3233 272° West 394 453 35,300 595 Climbing Cleveland Center
Mon 08:01:22 PM 41.0125 -83.4672 278° West 399 459 35,900 350 Climbing Cleveland Center
Mon 08:02:21 PM 41.0256 -83.6108 277° West 404 465 36,000 50 Climbing Cleveland Center
Mon 08:03:21 PM 41.0403 -83.7603 277° West 411 473 36,000 150 Level Cleveland Center
Mon 08:04:21 PM 41.0544 -83.9178 277° West 413 475 36,300 382 Climbing Cleveland Center
Mon 08:05:58 PM 41.0742 -84.1419 277° West 398 458 37,000 264 Climbing Chicago Center
Mon 08:07:00 PM 41.0875 -84.2886 277° West 399 459 37,000  Level Chicago Center
Mon 08:08:02 PM 41.1006 -84.4356 277° West 402 463 37,000  Level Chicago Center
Mon 08:09:03 PM 41.1139 -84.5806 277° West 399 459 37,000  Level Chicago Center
Mon 08:10:05 PM 41.1297 -84.7533 277° West 393 452 37,000  Level Chicago Center
Mon 08:11:07 PM 41.1419 -84.8986 276° West 395 455 37,000  Level Chicago Center
Mon 08:12:09 PM 41.1539 -85.0422 276° West 393 452 37,000  Level Chicago Center
Mon 08:13:11 PM 41.1653 -85.1861 276° West 391 450 37,000  Level Chicago Center
Mon 08:14:13 PM 41.1775 -85.3314 276° West 393 452 37,000  Level Chicago Center
Mon 08:15:15 PM 41.1889 -85.4764 276° West 395 455 37,000  Level Chicago Center
Mon 08:16:17 PM 41.2006 -85.6206 276° West 393 452 37,000  Level Chicago Center
Mon 08:17:18 PM 41.2119 -85.7661 276° West 394 453 37,000  Level Chicago Center
Mon 08:18:20 PM 41.2250 -85.9414 276° West 395 455 37,000  Level Chicago Center
Mon 08:19:22 PM 41.2364 -86.0878 276° West 399 459 37,000  Level Chicago Center
Mon 08:20:24 PM 41.2475 -86.2344 276° West 401 461 37,000  Level Chicago Center
Mon 08:21:26 PM 41.2581 -86.3831 275° West 402 463 37,000  Level Chicago Center
Mon 08:22:28 PM 41.2700 -86.5300 276° West 402 463 37,000  Level Chicago Center
Mon 08:23:30 PM 41.2789 -86.6756 275° West 398 458 37,000  Level Chicago Center
Mon 08:24:32 PM 41.2906 -86.8444 275° West 389 448 37,000  Level Chicago Center
Mon 08:25:34 PM 41.3000 -86.9872 275° West 390 449 37,000  Level Chicago Center
Mon 08:26:36 PM 41.3100 -87.1297 275° West 389 448 37,000  Level Chicago Center
Mon 08:27:38 PM 41.3192 -87.2722 275° West 389 448 37,000  Level Chicago Center
Mon 08:28:40 PM 41.3289 -87.4147 275° West 390 449 37,000  Level Chicago Center
Mon 08:29:42 PM 41.3383 -87.5600 275° West 396 456 37,000  Level Chicago Center
Mon 08:30:44 PM 41.3492 -87.7339 275° West 394 453 37,000  Level Chicago Center
Mon 08:31:46 PM 41.3578 -87.8797 275° West 396 456 37,000  Level Chicago Center
Mon 08:32:48 PM 41.3686 -88.0344 275° West 399 459 37,000  Level Chicago Center
Mon 08:33:50 PM 41.3717 -88.1803 272° West 398 458 37,000  Level Chicago Center
Mon 08:34:52 PM 41.3769 -88.3278 273° West 394 453 37,000  Level Chicago Center
Mon 08:35:54 PM 41.3822 -88.4742 273° West 396 456 37,000  Level Chicago Center
Mon 08:36:56 PM 41.3867 -88.6203 272° West 396 456 37,000  Level Chicago Center
Mon 08:37:58 PM 41.3919 -88.7972 272° West 400 460 37,000  Level Chicago Center
Mon 08:39:00 PM 41.3967 -88.9444 272° West 401 461 37,000  Level Chicago Center
Mon 08:40:02 PM 41.4006 -89.0925 272° West 401 461 37,000  Level Chicago Center
Mon 08:41:04 PM 41.4058 -89.2411 273° West 404 465 37,000  Level Chicago Center
Mon 08:42:06 PM 41.4100 -89.3925 272° West 410 472 37,000  Level Chicago Center
Mon 08:43:08 PM 41.4133 -89.5417 272° West 406 467 37,000  Level Chicago Center
Mon 08:44:10 PM 41.4169 -89.7200 272° West 405 466 37,000  Level Chicago Center
Mon 08:45:12 PM 41.4206 -89.8703 272° West 407 468 37,000  Level Chicago Center
Mon 08:46:14 PM 41.4236 -90.0219 272° West 409 471 37,000  Level Chicago Center
Mon 08:47:16 PM 41.4172 -90.1750 267° West 413 475 37,000  Level Chicago Center
Mon 08:48:19 PM 41.4103 -90.3267 267° West 414 476 37,000  Level Chicago Center
Mon 08:49:21 PM 41.4025 -90.5058 267° West 408 470 37,000  Level Chicago Center
Mon 08:50:23 PM 41.3961 -90.6581 267° West 414 476 37,000  Level Chicago Center
Mon 08:51:25 PM 41.3889 -90.8097 266° West 415 478 37,000  Level Chicago Center
Mon 08:52:27 PM 41.3825 -90.9603 267° West 410 472 37,000  Level Chicago Center
Mon 08:53:29 PM 41.3775 -91.1122 268° West 412 474 37,000  Level Chicago Center
Mon 08:54:31 PM 41.3719 -91.2625 267° West 408 470 37,000  Level Chicago Center
Mon 08:55:33 PM 41.3669 -91.4178 268° West 410 472 37,000  Level Chicago Center
Mon 08:56:35 PM 41.3619 -91.6008 268° West 414 476 37,000  Level Chicago Center
Mon 08:57:37 PM 41.3589 -91.7542 269° West 417 480 37,000  Level Chicago Center
Mon 08:58:39 PM 41.3553 -91.9053 268° West 413 475 37,000  Level Chicago Center
Mon 08:59:41 PM 41.3497 -92.0558 267° West 411 473 37,000  Level Chicago Center
Mon 09:00:43 PM 41.3439 -92.2042 267° West 409 471 37,000  Level Chicago Center
Mon 09:01:45 PM 41.3372 -92.3842 267° West 408 470 37,000  Level Chicago Center
Mon 09:02:47 PM 41.3339 -92.5367 268° West 412 474 37,000  Level Chicago Center
Mon 09:03:49 PM 41.3392 -92.6872 273° West 410 472 37,000  Level Chicago Center
Mon 09:04:51 PM 41.3556 -92.8369 278° West 414 476 37,000  Level Chicago Center
Mon 09:05:59 PM 41.3744 -93.0147 278° West 409 471 37,000  Level Minneapolis Center
Mon 09:07:01 PM 41.3886 -93.1611 277° West 405 466 37,000  Level Minneapolis Center
Mon 09:08:03 PM 41.4036 -93.3089 278° West 406 467 37,000  Level Minneapolis Center
Mon 09:09:05 PM 41.4211 -93.4864 278° West 407 468 37,000  Level Minneapolis Center
Mon 09:10:07 PM 41.4269 -93.6342 273° West 406 467 37,000  Level Minneapolis Center
Mon 09:11:09 PM 41.4178 -93.7856 265° West 407 468 37,000 -97 Level Minneapolis Center
Mon 09:12:11 PM 41.4147 -93.9342 268° West 411 473 36,800 -387 Descending Minneapolis Center
Mon 09:13:13 PM 41.4367 -94.0864 281° West 422 486 36,200 -387 Descending Minneapolis Center
Mon 09:14:15 PM 41.4603 -94.2778 279° West 426 490 36,000 -97 Descending Minneapolis Center
Mon 09:15:17 PM 41.4794 -94.4289 280° West 418 481 36,000  Level Minneapolis Center
Mon 09:16:19 PM 41.4981 -94.5789 279° West 413 475 36,000  Level Minneapolis Center
Mon 09:17:23 PM 41.5158 -94.7292 279° West 411 473 36,000  Level Minneapolis Center
Mon 09:18:24 PM 41.5328 -94.8775 279° West 408 470 36,000  Level Minneapolis Center
Mon 09:19:26 PM 41.5508 -95.0242 279° West 402 463 36,000  Level Minneapolis Center
Mon 09:20:28 PM 41.5683 -95.1700 279° West 400 460 36,000  Level Minneapolis Center
Mon 09:21:30 PM 41.5892 -95.3467 279° West 402 463 36,000  Level Minneapolis Center
Mon 09:22:32 PM 41.6031 -95.4633 279° West 400 460 36,000  Level Minneapolis Center
Mon 09:23:33 PM 41.6192 -95.6086 278° West 397 457 36,000  Level Minneapolis Center
Mon 09:24:35 PM 41.6389 -95.7897 278° West 396 456 36,000  Level Minneapolis Center
Mon 09:25:37 PM 41.6536 -95.9256 278° West 395 455 36,000  Level Minneapolis Center
Mon 09:26:39 PM 41.6728 -96.0972 279° West 396 456 36,000  Level Minneapolis Center
Mon 09:27:41 PM 41.6892 -96.2428 279° West 399 459 36,000  Level Minneapolis Center
Mon 09:28:42 PM 41.7044 -96.3875 278° West 397 457 36,000  Level Minneapolis Center
Mon 09:29:44 PM 41.7194 -96.5319 278° West 396 456 36,000  Level Minneapolis Center
Mon 09:30:45 PM 41.7342 -96.6761 278° West 393 452 36,000  Level Minneapolis Center
Mon 09:31:47 PM 41.7464 -96.7919 278° West 394 453 36,000  Level Minneapolis Center
Mon 09:32:48 PM 41.7669 -96.9956 278° West 394 453 36,000  Level Minneapolis Center
Mon 09:33:50 PM 41.7819 -97.1397 278° West 393 452 36,000  Level Minneapolis Center
Mon 09:34:51 PM 41.7956 -97.2844 277° West 392 451 36,000  Level Minneapolis Center
Mon 09:35:53 PM 41.8097 -97.4297 278° West 393 452 36,000  Level Minneapolis Center
Mon 09:36:54 PM 41.8236 -97.5753 277° West 395 455 36,000  Level Minneapolis Center
Mon 09:37:55 PM 41.8372 -97.7206 277° West 394 453 36,000  Level Minneapolis Center
Mon 09:38:57 PM 41.8522 -97.8667 278° West 395 455 36,000  Level Minneapolis Center
Mon 09:39:59 PM 41.8644 -98.0119 276° West 394 453 36,000  Level Minneapolis Center
Mon 09:41:00 PM 41.8794 -98.1714 277° West 392 451 36,000  Level Minneapolis Center
Mon 09:42:01 PM 41.8925 -98.3153 277° West 391 450 36,000  Level Minneapolis Center
Mon 09:43:15 PM 41.9000 -98.4608 274° West 393 452 36,000  Level Minneapolis Center
Mon 09:44:16 PM 41.8739 -98.6344 259° West 398 458 36,000  Level Minneapolis Center
Mon 09:45:17 PM 41.8475 -98.8072 258° West 397 457 36,000  Level Minneapolis Center
Mon 09:46:19 PM 41.8256 -98.9508 258° West 396 456 36,000  Level Minneapolis Center
Mon 09:47:20 PM 41.8019 -99.0953 258° West 397 457 36,000  Level Minneapolis Center
Mon 09:48:07 PM 41.7819 -99.2114 257° West 398 458 36,000  Level Denver Center
Mon 09:49:09 PM 41.7600 -99.3542 258° West 395 455 36,000  Level Denver Center
Mon 09:50:11 PM 41.7372 -99.4981 258° West 396 456 36,000  Level Denver Center
Mon 09:51:13 PM 41.7131 -99.6414 257° West 396 456 36,000  Level Denver Center
Mon 09:52:15 PM 41.6869 -99.8036 258° West 397 457 36,000  Level Denver Center
Mon 09:53:17 PM 41.6642 -99.9408 258° West 397 457 36,000  Level Denver Center
Mon 09:54:19 PM 41.6358 -100.1008 257° West 397 457 36,000  Level Denver Center
Mon 09:55:21 PM 41.6133 -100.2400 258° West 400 460 36,000  Level Denver Center
Mon 09:56:23 PM 41.5861 -100.3986 257° West 396 456 36,000  Level Denver Center
Mon 09:58:00 PM 41.5131 -100.6113 254° West  Level FlightAware Approximate
Mon 09:58:27 PM 41.5344 -100.6950 254° West 396 456 36,000  Level Denver Center
Mon 09:59:29 PM 41.4992 -100.8278 251° West 397 457 36,000  Level Denver Center
Mon 10:00:43 PM 41.4469 -101.0022 248° West 399 459 36,000  Level Denver Center
Mon 10:01:45 PM 41.4058 -101.1336 247° West 402 463 36,000  Level Denver Center
Mon 10:02:47 PM 41.3606 -101.2861 248° West 399 459 36,000  Level Denver Center
Mon 10:03:49 PM 41.3203 -101.4169 248° West 401 461 36,000  Level Denver Center
Mon 10:04:51 PM 41.2739 -101.5686 248° West 400 460 36,000 -290 Level Denver Center
Mon 10:05:53 PM 41.2319 -101.7000 247° West 403 464 35,400 -878 Descending Denver Center
Mon 10:06:54 PM 41.1831 -101.8533 247° West 404 465 34,200 -683 Descending Denver Center
Mon 10:07:56 PM 41.1436 -101.9828 248° West 400 460 34,000 -97 Descending Denver Center
Mon 10:08:58 PM 41.0961 -102.1403 248° West 410 472 34,000  Level Denver Center
Mon 10:10:00 PM 41.0533 -102.2769 247° West 418 481 34,000  Level Denver Center
Mon 10:11:02 PM 41.0019 -102.4353 247° West 419 482 34,000  Level Denver Center
Mon 10:12:04 PM 40.9506 -102.5639 242° Southwest 415 478 34,000  Level Denver Center
Mon 10:13:06 PM 40.8908 -102.7117 242° Southwest 410 472 34,000  Level Denver Center
Mon 10:14:08 PM 40.8386 -102.8403 242° Southwest 414 476 34,000  Level Denver Center
Mon 10:15:10 PM 40.7786 -102.9869 242° Southwest 409 471 34,000  Level Denver Center
Mon 10:16:12 PM 40.7239 -103.1214 242° Southwest 408 470 34,000 -823 Level Denver Center
Mon 10:17:14 PM 40.6694 -103.2536 242° Southwest 408 470 32,300 -2,537 Descending Denver Center
Mon 10:18:15 PM 40.6153 -103.3836 241° Southwest 403 464 28,800 -3,415 Descending Denver Center
Mon 10:19:17 PM 40.5625 -103.5119 242° Southwest 397 457 25,300 -3,387 Descending Denver Center
Mon 10:20:19 PM 40.5106 -103.6381 242° Southwest 390 449 21,800 -3,387 Descending Denver Center
Mon 10:21:21 PM 40.4592 -103.7586 241° Southwest 378 435 18,300 -2,274 Descending Denver Center
Mon 10:22:23 PM 40.4058 -103.8925 242° Southwest 371 427 17,100 -585 Descending Denver Center
Mon 10:23:24 PM 40.3633 -103.9925 241° Southwest 306 352 17,100 -390 Level Denver Center
Mon 10:24:26 PM 40.3567 -104.1022 265° West 287 330 16,300 -1,113 Descending Denver Center
Mon 10:25:28 PM 40.3542 -104.2022 268° West 279 321 14,800 -1,113 Descending Denver Center
Mon 10:26:30 PM 40.3539 -104.3047 270° West 282 325 14,000 -390 Descending Denver Center
Mon 10:27:31 PM 40.3522 -104.3936 269° West 230 265 14,000 -780 Level Denver Center
Mon 10:28:33 PM 40.3256 -104.4661 244° Southwest 220 253 12,400 -1,597 Descending Denver Center
Mon 10:29:35 PM 40.2997 -104.5444 247° West 232 267 10,700 -1,122 Descending Denver Center
Mon 10:30:36 PM 40.2719 -104.6303 247° West 238 274 10,100 -293 Descending Denver Center
Mon 10:31:38 PM 40.2169 -104.6819 216° Southwest 246 283 10,100 -98 Level Denver Center
Mon 10:32:39 PM 40.1447 -104.6933 187° South 252 290 9,900 -634 Descending Denver Center
Mon 10:33:41 PM 40.0778 -104.6939 180° South 241 277 8,800 -1,065 Descending Denver Center
Mon 10:34:43 PM 40.0228 -104.6944 180° South 198 228 7,700 -1,024 Descending Denver Center
Mon 10:35:44 PM 39.9672 -104.6953 181° South 184 212 6,700 -878 Descending Denver Center
Mon 10:36:46 PM 39.9200 -104.6961 181° South 171 197 5,900 -634 Descending Denver Center
Mon 10:37:47 PM 39.8775 -104.6969 181° South 155 178 5,400 -492 Descending Denver Center
Mon 10:39:00 PM 39.8617 -104.6732 180° South  Level Estimated
Mon 10:46:00 PM 39.8617 -104.6732 180° South  Level Estimated
Mon 10:47:00 PM 39.8617 -104.6732 180° South  Level Estimated
Mon 10:48:00 PM 39.8617 -104.6732 180° South  Level Estimated

Login

Don't have an account? Register now (free) for customized features, flight alerts, and more!